createdAt,value
2022-10-21T00:00:25.150Z,100898.15
2022-10-21T00:03:17.016Z,100903.46
2022-10-21T00:05:49.481Z,100902.06
2022-10-21T00:08:22.188Z,100899.50
2022-10-21T00:10:57.282Z,100902.05
2022-10-21T00:13:31.543Z,100897.23
2022-10-21T00:16:06.155Z,100892.67
2022-10-21T00:18:39.810Z,100889.42
2022-10-21T00:21:16.055Z,100893.31
2022-10-21T00:23:48.419Z,100885.77
2022-10-21T00:26:21.130Z,100884.64
2022-10-21T00:28:58.080Z,100882.64
2022-10-21T00:31:30.614Z,100874.30
2022-10-21T00:34:02.562Z,100869.78
2022-10-21T00:36:34.458Z,100867.91
2022-10-21T00:39:06.554Z,100862.75
2022-10-21T00:41:38.531Z,100858.64
2022-10-21T00:44:13.005Z,100854.80
2022-10-21T00:46:49.926Z,100849.70
2022-10-21T00:49:26.237Z,100844.94
2022-10-21T00:52:01.598Z,100840.92
2022-10-21T00:54:34.379Z,100837.55
2022-10-21T00:57:07.125Z,100823.11
2022-10-21T00:59:43.242Z,100824.77
2022-10-21T01:02:15.428Z,100820.58
2022-10-21T01:04:48.900Z,100813.04
2022-10-21T01:07:21.901Z,100807.84
2022-10-21T01:09:53.980Z,100803.89
2022-10-21T01:12:34.842Z,100799.55
2022-10-21T01:15:17.521Z,100793.41
2022-10-21T01:17:56.777Z,100783.61
2022-10-21T01:20:51.647Z,100775.33
2022-10-21T01:24:01.677Z,100775.36
2022-10-21T01:27:13.253Z,100775.78
2022-10-21T01:30:20.602Z,100771.17
2022-10-21T01:33:32.505Z,100754.87
2022-10-21T01:36:16.723Z,100739.50
2022-10-21T01:39:00.025Z,100733.75
2022-10-21T01:41:37.372Z,100727.67
2022-10-21T01:44:18.080Z,100719.98
2022-10-21T01:46:54.861Z,100721.35
2022-10-21T01:49:31.538Z,100713.77
2022-10-21T01:52:05.463Z,100704.45
2022-10-21T01:54:41.051Z,100696.52
2022-10-21T01:57:16.658Z,100695.33
2022-10-21T01:59:50.926Z,100690.06
2022-10-21T02:02:23.946Z,100687.14
2022-10-21T02:04:57.828Z,100687.36
2022-10-21T02:07:29.909Z,100687.87
2022-10-21T02:10:01.959Z,100687.07
2022-10-21T02:12:35.256Z,100683.08
2022-10-21T02:15:12.641Z,100692.23
2022-10-21T02:17:50.909Z,100696.81
2022-10-21T02:20:25.742Z,100704.74
2022-10-21T02:22:58.095Z,100711.77
2022-10-21T02:25:36.003Z,100711.48
2022-10-21T02:28:08.635Z,100705.75
2022-10-21T02:30:46.207Z,100704.45
2022-10-21T02:33:24.135Z,100703.14
2022-10-21T02:36:05.595Z,100699.12
2022-10-21T02:38:44.126Z,100695.85
2022-10-21T02:41:18.967Z,100692.13
2022-10-21T02:43:55.546Z,100684.20
2022-10-21T02:46:36.001Z,100678.50
2022-10-21T02:49:08.483Z,100677.42
2022-10-21T02:51:41.305Z,100672.31
2022-10-21T02:54:13.270Z,100652.89
2022-10-21T02:56:45.328Z,100644.06
2022-10-21T02:59:17.313Z,100651.44
2022-10-21T03:01:49.230Z,100648.77
2022-10-21T03:04:21.339Z,100652.77
2022-10-21T03:06:53.275Z,100651.77
2022-10-21T03:09:25.543Z,100644.45
2022-10-21T03:11:57.518Z,100637.82
2022-10-21T03:14:29.448Z,100636.34
2022-10-21T03:17:01.382Z,100639.40
2022-10-21T03:19:33.310Z,100644.05
2022-10-21T03:22:05.283Z,100651.38
2022-10-21T03:24:37.202Z,100657.80
2022-10-21T03:27:09.251Z,100664.45
2022-10-21T03:29:41.211Z,100656.95
2022-10-21T03:32:13.173Z,100659.10
2022-10-21T03:34:45.370Z,100661.37
2022-10-21T03:37:17.666Z,100652.02
2022-10-21T03:39:49.673Z,100640.77
2022-10-21T03:42:21.629Z,100636.31
2022-10-21T03:44:53.533Z,100633.04
2022-10-21T03:47:25.572Z,100622.75
2022-10-21T03:49:58.613Z,100617.67
2022-10-21T03:52:30.726Z,100617.12
2022-10-21T03:55:02.652Z,100614.02
2022-10-21T03:57:34.683Z,100615.29
2022-10-21T04:00:08.670Z,100606.14
2022-10-21T04:02:49.606Z,100601.95
2022-10-21T04:05:21.679Z,100600.10
2022-10-21T04:07:53.687Z,100596.78
2022-10-21T04:10:25.694Z,100590.89
2022-10-21T04:12:57.783Z,100589.39
2022-10-21T04:15:29.717Z,100592.36
2022-10-21T04:18:02.152Z,100591.11
2022-10-21T04:20:34.181Z,100587.36
2022-10-21T04:23:06.389Z,100589.09
2022-10-21T04:25:38.364Z,100588.04
2022-10-21T04:28:10.625Z,100575.54
2022-10-21T04:30:42.749Z,100568.30
2022-10-21T04:33:14.746Z,100557.92
2022-10-21T04:35:46.805Z,100550.95
2022-10-21T04:38:18.906Z,100539.14
2022-10-21T04:40:56.054Z,100537.70
2022-10-21T04:43:28.655Z,100531.93
2022-10-21T04:46:00.645Z,100531.04
2022-10-21T04:48:32.766Z,100530.21
2022-10-21T04:51:04.845Z,100525.27
2022-10-21T04:53:36.830Z,100526.48
2022-10-21T04:56:10.751Z,100525.80
2022-10-21T04:58:42.859Z,100526.27
2022-10-21T05:01:14.851Z,100527.89
2022-10-21T05:03:46.966Z,100529.49
2022-10-21T05:06:18.900Z,100527.64
2022-10-21T05:08:51.071Z,100528.02
2022-10-21T05:11:23.100Z,100527.50
2022-10-21T05:13:55.134Z,100527.50
2022-10-21T05:16:27.121Z,100529.33
2022-10-21T05:18:59.156Z,100527.45
2022-10-21T05:21:31.237Z,100520.52
2022-10-21T05:24:03.383Z,100515.48
2022-10-21T05:26:35.353Z,100514.98
2022-10-21T05:29:07.328Z,100517.40
2022-10-21T05:31:39.453Z,100513.09
2022-10-21T05:34:11.547Z,100512.80
2022-10-21T05:36:43.445Z,100509.12
2022-10-21T05:39:15.394Z,100504.30
2022-10-21T05:41:48.134Z,100498.88
2022-10-21T05:44:20.415Z,100497.23
2022-10-21T05:46:52.376Z,100495.69
2022-10-21T05:49:24.458Z,100488.79
2022-10-21T05:51:56.405Z,100489.86
2022-10-21T05:54:28.742Z,100489.95
2022-10-21T05:57:02.579Z,100480.58
2022-10-21T05:59:34.728Z,100477.06
2022-10-21T06:02:06.866Z,100477.02
2022-10-21T06:04:38.990Z,100476.06
2022-10-21T06:07:11.278Z,100470.44
2022-10-21T06:09:43.262Z,100471.94
2022-10-21T06:12:15.194Z,100473.64
2022-10-21T06:14:47.140Z,100477.67
2022-10-21T06:17:19.126Z,100478.15
2022-10-21T06:19:51.265Z,100480.48
2022-10-21T06:22:23.249Z,100478.90
2022-10-21T06:24:55.450Z,100476.40
2022-10-21T06:27:27.458Z,100472.57
2022-10-21T06:29:59.407Z,100471.19
2022-10-21T06:32:31.686Z,100473.16
2022-10-21T06:35:03.619Z,100473.16
2022-10-21T06:37:36.190Z,100471.66
2022-10-21T06:40:11.986Z,100476.74
2022-10-21T06:42:43.962Z,100468.94
2022-10-21T06:45:16.027Z,100472.07
2022-10-21T06:47:47.928Z,100470.03
2022-10-21T06:50:20.817Z,100473.52
2022-10-21T06:52:52.801Z,100470.41
2022-10-21T06:55:25.021Z,100470.21
2022-10-21T06:57:57.136Z,100469.71
2022-10-21T07:03:05.916Z,100457.82
2022-10-21T07:05:37.806Z,100456.00
2022-10-21T07:08:12.111Z,100451.52
2022-10-21T07:10:46.158Z,100438.73
2022-10-21T07:13:20.166Z,100432.24
2022-10-21T07:16:02.394Z,100425.91
2022-10-21T07:18:36.996Z,100424.77
2022-10-21T07:21:14.840Z,100420.27
2022-10-21T07:23:51.279Z,100421.98
2022-10-21T07:26:24.280Z,100414.73
2022-10-21T07:28:58.867Z,100409.02
2022-10-21T07:31:33.012Z,100412.27
2022-10-21T07:34:06.925Z,100408.91
2022-10-21T07:36:41.124Z,100415.42
2022-10-21T07:39:15.600Z,100420.19
2022-10-21T07:41:49.576Z,100417.71
2022-10-21T07:44:23.893Z,100420.50
2022-10-21T07:46:56.389Z,100423.44
2022-10-21T07:49:28.302Z,100425.56
2022-10-21T07:52:02.586Z,100432.49
2022-10-21T07:54:34.770Z,100429.50
2022-10-21T07:57:06.718Z,100430.66
2022-10-21T07:59:39.384Z,100425.77
2022-10-21T08:02:14.544Z,100420.09
2022-10-21T08:04:46.550Z,100420.02
2022-10-21T08:07:18.469Z,100413.61
2022-10-21T08:09:50.495Z,100402.04
2022-10-21T08:12:22.362Z,100402.19
2022-10-21T08:14:54.400Z,100399.60
2022-10-21T08:17:26.435Z,100396.73
2022-10-21T08:19:58.375Z,100395.86
2022-10-21T08:22:30.411Z,100384.98
2022-10-21T08:25:02.371Z,100376.35
2022-10-21T08:27:34.947Z,100377.29
2022-10-21T08:30:08.023Z,100372.61
2022-10-21T08:32:40.337Z,100368.84
2022-10-21T08:35:14.579Z,100365.01
2022-10-21T08:37:49.011Z,100369.15
2022-10-21T08:40:21.599Z,100367.74
2022-10-21T08:42:53.721Z,100362.98
2022-10-21T08:45:36.809Z,100360.46
2022-10-21T08:48:15.539Z,100357.59
2022-10-21T08:50:51.843Z,100352.66
2022-10-21T08:53:28.464Z,100346.72
2022-10-21T08:56:07.570Z,100340.40
2022-10-21T08:58:39.546Z,100343.33
2022-10-21T09:01:24.693Z,100336.48
2022-10-21T09:04:04.396Z,100325.80
2022-10-21T09:06:49.107Z,100326.04
2022-10-21T09:09:27.846Z,100316.91
2022-10-21T09:12:10.157Z,100315.60
2022-10-21T09:15:01.660Z,100308.41
2022-10-21T09:17:57.655Z,100305.45
2022-10-21T09:20:42.488Z,100299.40
2022-10-21T09:23:38.492Z,100294.20
2022-10-21T09:26:26.495Z,100293.57
2022-10-21T09:29:02.521Z,100288.75
2022-10-21T09:31:34.455Z,100287.34
2022-10-21T09:34:16.687Z,100284.73
2022-10-21T09:36:50.594Z,100285.27
2022-10-21T09:39:29.549Z,100272.31
2022-10-21T09:42:07.312Z,100264.95
2022-10-21T09:44:46.981Z,100260.38
2022-10-21T09:47:24.744Z,100255.17
2022-10-21T09:50:09.167Z,100251.61
2022-10-21T09:52:43.633Z,100244.17
2022-10-21T09:55:17.358Z,100236.38
2022-10-21T09:57:57.320Z,100235.61
2022-10-21T10:00:48.135Z,100234.98
2022-10-21T10:03:39.143Z,100229.86
2022-10-21T10:06:11.569Z,100227.38
2022-10-21T10:08:47.486Z,100224.90
2022-10-21T10:11:22.647Z,100228.02
2022-10-21T10:13:53.973Z,100226.98
2022-10-21T10:16:30.856Z,100226.71
2022-10-21T10:19:18.818Z,100222.52
2022-10-21T10:22:10.777Z,100223.79
2022-10-21T10:24:43.868Z,100225.68
2022-10-21T10:27:23.442Z,100223.38
2022-10-21T10:30:00.643Z,100223.91
2022-10-21T10:32:36.766Z,100224.73
2022-10-21T10:35:18.875Z,100223.51
2022-10-21T10:37:51.808Z,100220.77
2022-10-21T10:40:27.496Z,100223.96
2022-10-21T10:43:07.214Z,100227.75
2022-10-21T10:45:39.222Z,100225.33
2022-10-21T10:48:24.131Z,100222.91
2022-10-21T10:50:58.209Z,100225.71
2022-10-21T10:53:33.896Z,100225.54
2022-10-21T10:56:19.900Z,100217.02
2022-10-21T10:59:04.210Z,100203.11
2022-10-21T11:01:40.628Z,100199.83
2022-10-21T11:04:22.162Z,100203.19
2022-10-21T11:07:02.060Z,100198.05
2022-10-21T11:09:35.904Z,100199.90
2022-10-21T11:12:12.859Z,100192.85
2022-10-21T11:14:55.662Z,100193.02
2022-10-21T11:17:33.523Z,100187.05
2022-10-21T11:20:14.950Z,100187.61
2022-10-21T11:22:55.032Z,100191.24
2022-10-21T11:25:35.814Z,100191.76
2022-10-21T11:28:21.049Z,100187.59
2022-10-21T11:31:01.767Z,100194.88
2022-10-21T11:33:44.841Z,100195.27
2022-10-21T11:36:28.099Z,100193.89
2022-10-21T11:39:31.997Z,100195.94
2022-10-21T11:42:15.210Z,100189.48
2022-10-21T11:45:01.442Z,100185.27
2022-10-21T11:47:43.369Z,100178.23
2022-10-21T11:50:25.753Z,100172.16
2022-10-21T11:53:14.860Z,100178.17
2022-10-21T11:55:54.789Z,100170.24
2022-10-21T11:58:39.515Z,100167.16
2022-10-21T12:01:25.225Z,100162.38
2022-10-21T12:04:30.472Z,100143.80
2022-10-21T12:07:23.673Z,100128.27
2022-10-21T12:10:00.541Z,100129.16
2022-10-21T12:12:36.704Z,100131.45
2022-10-21T12:15:19.313Z,100130.10
2022-10-21T12:17:52.978Z,100124.87
2022-10-21T12:20:28.095Z,100119.33
2022-10-21T12:23:03.596Z,100123.86
2022-10-21T12:25:42.914Z,100124.97
2022-10-21T12:28:22.025Z,100122.74
2022-10-21T12:31:00.130Z,100130.64
2022-10-21T12:33:44.788Z,100133.06
2022-10-21T12:36:37.322Z,100130.07
2022-10-21T12:39:17.153Z,100133.03
2022-10-21T12:41:49.906Z,100133.02
2022-10-21T12:44:25.766Z,100140.14
2022-10-21T12:47:02.797Z,100138.64
2022-10-21T12:49:36.627Z,100134.02
2022-10-21T12:52:15.533Z,100131.59
2022-10-21T12:54:57.052Z,100135.78
2022-10-21T12:57:32.126Z,100131.88
2022-10-21T13:00:39.028Z,100124.61
2022-10-21T13:03:13.642Z,100121.23
2022-10-21T13:06:07.251Z,100119.52
2022-10-21T13:08:54.832Z,100114.16
2022-10-21T13:11:41.026Z,100112.61
2022-10-21T13:14:35.380Z,100112.61
2022-10-21T13:17:31.164Z,100107.55
2022-10-21T13:20:38.514Z,100099.52
2022-10-21T13:23:32.808Z,100100.59
2022-10-21T13:26:24.247Z,100098.73
2022-10-21T13:29:19.362Z,100102.11
2022-10-21T13:32:28.122Z,100096.77
2022-10-21T13:35:09.016Z,100088.03
2022-10-21T13:37:43.943Z,100075.02
2022-10-21T13:40:17.828Z,100071.21
2022-10-21T13:42:58.945Z,100066.36
2022-10-21T13:45:34.321Z,100072.69
2022-10-21T13:48:13.336Z,100065.27
2022-10-21T13:50:47.173Z,100059.46
2022-10-21T13:53:30.160Z,100062.52
2022-10-21T13:56:05.149Z,100071.13
2022-10-21T13:58:40.092Z,100068.13
2022-10-21T14:01:14.579Z,100073.42
2022-10-21T14:06:31.695Z,100066.38
2022-10-21T14:09:08.236Z,100062.77
2022-10-21T14:11:48.722Z,100056.44
2022-10-21T14:14:25.755Z,100041.71
2022-10-21T14:17:00.467Z,100048.75
2022-10-21T14:19:37.904Z,100054.59
2022-10-21T14:22:15.518Z,100045.05
2022-10-21T14:24:50.382Z,100041.98
2022-10-21T14:27:25.999Z,100052.46
2022-10-21T14:29:59.387Z,100066.95
2022-10-21T14:32:31.894Z,100067.41
2022-10-21T14:35:17.790Z,100071.31
2022-10-21T14:37:53.184Z,100069.56
2022-10-21T14:40:31.979Z,100076.61
2022-10-21T14:43:09.157Z,100077.77
2022-10-21T14:45:49.243Z,100078.44
2022-10-21T14:48:30.436Z,100072.70
2022-10-21T14:51:06.794Z,100064.36
2022-10-21T14:53:45.641Z,100060.61
2022-10-21T14:56:21.963Z,100057.20
2022-10-21T14:58:59.914Z,100059.20
2022-10-21T15:01:32.094Z,100056.61
2022-10-21T15:04:04.406Z,100054.46
2022-10-21T15:06:36.988Z,100056.73
2022-10-21T15:09:23.282Z,100060.16
2022-10-21T15:11:55.418Z,100058.94
2022-10-21T15:14:33.134Z,100049.99
2022-10-21T15:17:11.177Z,100046.46
2022-10-21T15:19:49.082Z,100049.49
2022-10-21T15:22:28.394Z,100042.92
2022-10-21T15:25:07.143Z,100039.05
2022-10-21T15:27:44.123Z,100038.75
2022-10-21T15:30:21.253Z,100036.11
2022-10-21T15:32:55.191Z,100043.90
2022-10-21T15:35:27.195Z,100039.44
2022-10-21T15:37:59.142Z,100038.06
2022-10-21T15:40:34.554Z,100045.10
2022-10-21T15:43:06.542Z,100055.70
2022-10-21T15:45:41.845Z,100050.97
2022-10-21T15:48:18.442Z,100049.70
2022-10-21T15:50:50.390Z,100052.41
2022-10-21T15:53:22.298Z,100046.42
2022-10-21T15:55:54.362Z,100040.32
2022-10-21T15:58:26.363Z,100037.14
2022-10-21T16:00:58.343Z,100035.97
2022-10-21T16:03:30.654Z,100033.70
2022-10-21T16:06:02.580Z,100028.70
2022-10-21T16:08:34.592Z,100022.75
2022-10-21T16:11:07.557Z,100016.48
2022-10-21T16:13:39.581Z,100023.79
2022-10-21T16:16:21.220Z,100022.54
2022-10-21T16:18:54.131Z,100026.41
2022-10-21T16:21:26.248Z,100027.48
2022-10-21T16:23:58.589Z,100031.27
2022-10-21T16:26:33.215Z,100038.53
2022-10-21T16:29:05.241Z,100037.44
2022-10-21T16:31:37.191Z,100036.86
2022-10-21T16:34:09.139Z,100040.05
2022-10-21T16:36:41.120Z,100042.89
2022-10-21T16:39:17.179Z,100045.69
2022-10-21T16:41:49.490Z,100053.02
2022-10-21T16:44:21.595Z,100058.58
2022-10-21T16:46:55.469Z,100053.93
2022-10-21T16:49:29.596Z,100049.05
2022-10-21T16:52:02.363Z,100051.95
2022-10-21T16:54:35.623Z,100054.17
2022-10-21T16:57:08.047Z,100057.94
2022-10-21T16:59:40.060Z,100056.96
2022-10-21T17:02:17.611Z,100050.42
2022-10-21T17:04:49.873Z,100046.45
2022-10-21T17:07:22.018Z,100045.16
2022-10-21T17:09:53.970Z,100045.36
2022-10-21T17:12:26.741Z,100045.91
2022-10-21T17:14:58.690Z,100042.55
2022-10-21T17:17:31.226Z,100041.38
2022-10-21T17:20:03.305Z,100043.92
2022-10-21T17:22:35.316Z,100036.41
2022-10-21T17:25:08.322Z,100033.35
2022-10-21T17:27:40.935Z,100026.48
2022-10-21T17:30:14.834Z,100026.19
2022-10-21T17:32:46.768Z,100022.46
2022-10-21T17:35:19.967Z,100022.50
2022-10-21T17:37:53.095Z,100017.70
2022-10-21T17:40:27.281Z,100014.50
2022-10-21T17:42:59.657Z,100014.96
2022-10-21T17:45:31.659Z,100009.65
2022-10-21T17:48:03.666Z,100008.69
2022-10-21T17:50:36.536Z,100005.13
2022-10-21T17:53:08.642Z,99996.60
2022-10-21T17:55:40.636Z,99993.08
2022-10-21T17:58:12.626Z,99986.13
2022-10-21T18:00:46.214Z,99988.66
2022-10-21T18:03:18.729Z,99981.04
2022-10-21T18:05:50.910Z,99976.13
2022-10-21T18:08:22.843Z,99970.50
2022-10-21T18:10:56.350Z,99966.06
2022-10-21T18:13:31.021Z,99961.20
2022-10-21T18:16:06.586Z,99953.63
2022-10-21T18:18:39.297Z,99953.42
2022-10-21T18:21:14.247Z,99948.86
2022-10-21T18:23:45.945Z,99949.42
2022-10-21T18:26:20.646Z,99954.67
2022-10-21T18:28:54.605Z,99946.98
2022-10-21T18:31:30.155Z,99945.45
2022-10-21T18:34:05.115Z,99939.15
2022-10-21T18:36:35.572Z,99935.20
2022-10-21T18:39:08.336Z,99931.17
2022-10-21T18:41:40.675Z,99931.73
2022-10-21T18:44:15.200Z,99934.29
2022-10-21T18:46:49.232Z,99928.77
2022-10-21T18:49:23.326Z,99923.66
2022-10-21T18:51:55.503Z,99923.25
2022-10-21T18:54:27.738Z,99921.61
2022-10-21T18:56:59.707Z,99919.17
2022-10-21T18:59:31.685Z,99914.67
2022-10-21T19:02:04.278Z,99914.15
2022-10-21T19:04:36.423Z,99912.14
2022-10-21T19:07:08.336Z,99917.64
2022-10-21T19:09:40.604Z,99913.21
2022-10-21T19:12:16.414Z,99909.24
2022-10-21T19:14:50.524Z,99912.51
2022-10-21T19:17:22.558Z,99906.42
2022-10-21T19:19:54.570Z,99909.08
2022-10-21T19:22:26.568Z,99909.15
2022-10-21T19:24:58.785Z,99906.23
2022-10-21T19:27:30.793Z,99904.90
2022-10-21T19:30:03.061Z,99905.66
2022-10-21T19:32:35.168Z,99903.16
2022-10-21T19:35:07.863Z,99901.13
2022-10-21T19:37:39.999Z,99900.78
2022-10-21T19:40:14.400Z,99901.84
2022-10-21T19:42:46.470Z,99902.91
2022-10-21T19:45:18.655Z,99904.45
2022-10-21T19:47:50.597Z,99900.38
2022-10-21T19:50:22.765Z,99904.04
2022-10-21T19:52:54.728Z,99903.79
2022-10-21T19:55:26.816Z,99903.39
2022-10-21T19:57:58.756Z,99906.11
2022-10-21T20:00:30.817Z,99904.28
2022-10-21T20:03:02.730Z,99902.46
2022-10-21T20:05:37.138Z,99900.91
2022-10-21T20:08:09.160Z,99900.92
2022-10-21T20:10:41.083Z,99894.77
2022-10-21T20:13:13.177Z,99896.71
2022-10-21T20:15:50.666Z,99892.63
2022-10-21T20:18:26.413Z,99894.83
2022-10-21T20:20:59.524Z,99898.55
2022-10-21T20:23:31.646Z,99902.25
2022-10-21T20:26:04.629Z,99897.39
2022-10-21T20:28:37.057Z,99896.10
2022-10-21T20:31:11.874Z,99894.52
2022-10-21T20:33:45.518Z,99892.73
2022-10-21T20:36:19.785Z,99888.45
2022-10-21T20:38:54.147Z,99886.77
2022-10-21T20:41:28.303Z,99883.48
2022-10-21T20:44:00.771Z,99880.48
2022-10-21T20:46:35.402Z,99880.48
2022-10-21T20:49:08.827Z,99877.98
2022-10-21T20:51:43.345Z,99876.25
2022-10-21T20:54:17.257Z,99878.84
2022-10-21T20:56:49.973Z,99879.66
2022-10-21T20:59:21.949Z,99881.45
2022-10-21T21:01:54.197Z,99877.63
2022-10-21T21:04:26.183Z,99879.98
2022-10-21T21:06:58.130Z,99884.08
2022-10-21T21:09:57.346Z,99888.98
2022-10-21T21:12:22.514Z,99883.04
2022-10-21T21:14:54.519Z,99881.91
2022-10-21T21:17:26.613Z,99874.71
2022-10-21T21:19:58.645Z,99875.02
2022-10-21T21:22:30.664Z,99873.27
2022-10-21T21:25:02.581Z,99873.36
2022-10-21T21:27:34.590Z,99873.08
2022-10-21T21:30:09.377Z,99870.98
2022-10-21T21:32:41.678Z,99869.80
2022-10-21T21:35:14.231Z,99866.64
2022-10-21T21:37:46.233Z,99867.23
2022-10-21T21:40:18.359Z,99868.59
2022-10-21T21:42:50.297Z,99860.30
2022-10-21T21:45:22.357Z,99860.27
2022-10-21T21:47:54.347Z,99855.92
2022-10-21T21:50:26.515Z,99849.99
2022-10-21T21:52:58.506Z,99846.45
2022-10-21T21:55:30.551Z,99848.29
2022-10-21T21:58:02.985Z,99846.77
2022-10-21T22:00:36.055Z,99846.13
2022-10-21T22:03:08.182Z,99841.98
2022-10-21T22:05:40.123Z,99842.98
2022-10-21T22:08:12.534Z,99841.17
2022-10-21T22:10:45.394Z,99838.71
2022-10-21T22:13:17.502Z,99832.71
2022-10-21T22:15:49.603Z,99830.64
2022-10-21T22:18:21.715Z,99830.73
2022-10-21T22:20:53.646Z,99829.54
2022-10-21T22:23:25.545Z,99815.65
2022-10-21T22:25:58.054Z,99817.15
2022-10-21T22:28:30.226Z,99812.59
2022-10-21T22:31:03.870Z,99808.70
2022-10-21T22:33:36.814Z,99812.34
2022-10-21T22:36:11.358Z,99807.86
2022-10-21T22:38:43.360Z,99803.20
2022-10-21T22:41:15.475Z,99799.48
2022-10-21T22:43:47.502Z,99793.54
2022-10-21T22:46:33.532Z,99796.37
2022-10-21T22:49:07.504Z,99796.09
2022-10-21T22:51:39.613Z,99796.48
2022-10-21T22:54:29.584Z,99798.12
2022-10-21T22:57:04.011Z,99796.86
2022-10-21T22:59:37.582Z,99794.64
2022-10-21T23:02:09.566Z,99791.25
2022-10-21T23:04:41.547Z,99786.73
2022-10-21T23:07:13.592Z,99785.20
2022-10-21T23:09:45.566Z,99786.25
2022-10-21T23:12:17.615Z,99785.39
2022-10-21T23:14:49.638Z,99787.62
2022-10-21T23:17:21.491Z,99786.77
2022-10-21T23:19:53.436Z,99782.37
2022-10-21T23:22:25.461Z,99792.02
2022-10-21T23:24:57.475Z,99788.93
2022-10-21T23:27:29.407Z,99786.88
2022-10-21T23:30:01.415Z,99782.37
2022-10-21T23:32:33.445Z,99783.22
2022-10-21T23:35:06.059Z,99785.56
2022-10-21T23:37:38.572Z,99786.83
2022-10-21T23:40:13.549Z,99789.73
2022-10-21T23:42:45.479Z,99782.66
2022-10-21T23:45:17.442Z,99780.35
2022-10-21T23:47:49.393Z,99779.52
2022-10-21T23:50:21.598Z,99779.79
2022-10-21T23:52:53.578Z,99775.60
2022-10-21T23:55:25.667Z,99777.17
2022-10-21T23:57:57.886Z,99782.27
